Weather reports worldwide

Advertisment
Bealach, United Kingdom (3039): temperature & dewpoint: 13.11.2019 18:00:00 - 19.11.2019 18:00:00 (GMT)Bealach, United Kingdom (3039): wind speed & gusts: 13.11.2019 18:00:00 - 19.11.2019 18:00:00 (GMT)Bealach, United Kingdom (3039): wind direction: 13.11.2019 18:00:00 - 19.11.2019 18:00:00 (GMT)
Date & Time tt [°C] td [°C] ff [km/h] ff [kn] fx [km/h] fx [kn] dd
19.11.2019 18:00:00 1,4 -1,6 21 11 - - ESE
19.11.2019 17:00:00 1,4 -1,7 22 12 48 26 ESE
19.11.2019 16:00:00 1,6 -1,6 18 10 - - ESE
19.11.2019 15:00:00 0,7 -2,1 28 15 50 27 E
19.11.2019 14:00:00 0,5 -2,6 29 16 48 26 E
19.11.2019 13:00:00 0,3 -3,5 16 9 - - SE
19.11.2019 12:00:00 0,9 -3,6 15 8 - - SE
19.11.2019 11:00:00 0,1 -5,3 11 6 46 25 SE
19.11.2019 10:00:00 0,2 -3,1 16 9 - - ESE
19.11.2019 09:00:00 -0,1 -4,3 11 6 - - SE
19.11.2019 08:00:00 0,2 -3,8 24 13 - - SE
19.11.2019 07:00:00 0,4 -4,6 29 16 - - SSE
19.11.2019 06:00:00 0,0 -5,3 24 13 - - SSE
19.11.2019 05:00:00 -0,4 -8,7 26 14 - - SSE
19.11.2019 04:00:00 -1,0 -8,9 28 15 - - SSE
19.11.2019 03:00:00 -1,1 -8,3 26 14 - - SSE
19.11.2019 02:00:00 -1,2 -8,9 35 19 - - SSE
19.11.2019 01:00:00 -0,7 -9,0 31 17 - - SSE
19.11.2019 00:00:00 -1,1 -8,3 16 9 - - SE
18.11.2019 23:00:00 -1,3 -7,7 11 6 - - ESE
18.11.2019 22:00:00 -1,0 -7,4 16 9 - - ESE
18.11.2019 21:00:00 -1,4 -6,6 21 11 - - ESE
18.11.2019 20:00:00 -1,7 -6,0 21 11 - - ESE
18.11.2019 19:00:00 -1,7 -5,6 21 11 - - ESE
18.11.2019 18:00:00 -1,8 -5,0 16 9 - - ESE
18.11.2019 17:00:00 -1,8 -4,4 13 7 - - ESE
18.11.2019 16:00:00 -1,6 -5,1 16 9 - - SSE
18.11.2019 15:00:00 -1,7 -7,4 13 7 - - SE
18.11.2019 14:00:00 -1,3 -10,8 5 3 - - SE
18.11.2019 13:00:00 -1,0 -10,3 8 4 - - ESE
18.11.2019 12:00:00 -1,3 -8,4 9 5 - - ESE
18.11.2019 11:00:00 -1,4 -8,8 9 5 - - ESE
18.11.2019 10:00:00 -1,3 -9,1 5 3 - - ESE
18.11.2019 09:00:00 -2,2 -3,7 5 3 - - N
18.11.2019 08:00:00 -2,1 -3,1 9 5 - - N
18.11.2019 07:00:00 -2,1 -3,2 9 5 - - NNE
18.11.2019 06:00:00 -1,9 -2,2 9 5 - - NNW
18.11.2019 05:00:00 -1,4 -1,4 15 8 - - NW
18.11.2019 04:00:00 -1,7 -1,9 13 7 - - NW
18.11.2019 03:00:00 -1,0 -1,0 13 7 - - WNW
18.11.2019 02:00:00 -1,1 -1,1 5 3 - - NW
18.11.2019 01:00:00 -0,8 -0,8 15 8 - - W
18.11.2019 00:00:00 -0,8 -0,8 11 6 - - WNW
17.11.2019 23:00:00 -0,6 -0,6 15 8 - - W
17.11.2019 22:00:00 -0,6 -0,6 16 9 - - W
17.11.2019 21:00:00 -0,7 -0,7 18 10 - - WNW
17.11.2019 20:00:00 -0,7 -0,7 13 7 - - WNW
17.11.2019 19:00:00 -0,7 -0,7 16 9 - - NW
17.11.2019 18:00:00 -1,1 -1,6 22 12 - - NW
17.11.2019 17:00:00 -1,1 -2,6 26 14 - - NNW
17.11.2019 16:00:00 -1,0 -2,3 28 15 - - NNW
17.11.2019 15:00:00 -0,8 -3,6 28 15 - - NNW
17.11.2019 14:00:00 -1,0 -4,8 34 18 - - NNW
17.11.2019 13:00:00 -0,5 -4,2 31 17 - - NNW
17.11.2019 12:00:00 -0,2 -0,2 31 17 - - NNW
17.11.2019 11:00:00 -0,2 -0,2 24 13 - - NNW
17.11.2019 10:00:00 -0,1 -0,1 26 14 - - N
17.11.2019 09:00:00 -0,2 -0,2 24 13 46 25 N
17.11.2019 08:00:00 -0,3 -0,3 29 16 48 26 N
17.11.2019 07:00:00 -0,3 -0,3 34 18 55 30 N
17.11.2019 06:00:00 -0,1 -0,1 24 13 - - NNW
17.11.2019 05:00:00 0,0 0,0 15 8 - - WNW
17.11.2019 04:00:00 0,0 0,0 13 7 - - W
17.11.2019 03:00:00 -0,1 -0,1 15 8 - - SW
17.11.2019 02:00:00 -0,3 -0,3 15 8 - - WSW
17.11.2019 01:00:00 -0,2 -0,3 13 7 - - SW
17.11.2019 00:00:00 -0,1 -0,8 13 7 - - WSW
16.11.2019 23:00:00 0,0 -0,9 9 5 - - W
16.11.2019 22:00:00 0,1 -1,7 11 6 - - W
16.11.2019 21:00:00 0,0 0,0 9 5 - - W
16.11.2019 20:00:00 0,2 0,2 11 6 - - WSW
16.11.2019 19:00:00 1,1 -1,6 9 5 - - W
16.11.2019 18:00:00 1,1 -2,0 13 7 - - WSW
16.11.2019 17:00:00 1,1 -2,0 11 6 - - WSW
16.11.2019 16:00:00 0,4 -0,1 9 5 - - SW
16.11.2019 15:00:00 0,2 -1,2 8 4 - - SSW
16.11.2019 14:00:00 0,2 -1,3 13 7 - - SSW
16.11.2019 13:00:00 0,4 -1,8 15 8 - - SSW
16.11.2019 12:00:00 0,4 -2,7 16 9 - - SSW
16.11.2019 11:00:00 0,4 -2,9 16 9 - - S
16.11.2019 10:00:00 0,3 -1,9 15 8 - - S
16.11.2019 09:00:00 0,3 -1,7 15 8 - - S
16.11.2019 08:00:00 0,1 -1,5 15 8 - - SSE
16.11.2019 07:00:00 0,5 -1,2 13 7 - - SSE
16.11.2019 06:00:00 0,4 -1,1 - - - - -
16.11.2019 05:00:00 -0,1 -1,1 5 3 - - SE
16.11.2019 04:00:00 0,0 -0,9 8 4 - - SE
16.11.2019 03:00:00 0,1 -1,0 16 9 - - SSE
16.11.2019 02:00:00 -0,2 -1,0 11 6 - - SE
16.11.2019 01:00:00 0,0 -0,8 11 6 - - ESE
16.11.2019 00:00:00 0,1 -0,5 18 10 - - ESE
15.11.2019 23:00:00 0,0 -0,2 13 7 - - ESE
15.11.2019 22:00:00 -0,4 -0,4 18 10 - - ESE
15.11.2019 21:00:00 -0,2 -0,3 22 12 - - ESE
15.11.2019 20:00:00 -0,2 -0,4 24 13 - - E
15.11.2019 19:00:00 -0,2 -0,3 24 13 - - E
15.11.2019 18:00:00 0,0 -0,6 29 16 48 26 E
15.11.2019 17:00:00 0,4 -1,2 22 12 - - E
15.11.2019 16:00:00 0,6 -1,5 28 15 - - E
15.11.2019 15:00:00 0,4 -1,9 29 16 - - E
15.11.2019 14:00:00 0,3 -2,7 26 14 - - E
15.11.2019 13:00:00 0,3 -4,1 21 11 - - E
15.11.2019 12:00:00 0,2 -3,4 26 14 - - E
15.11.2019 11:00:00 -0,1 -3,9 16 9 - - E
15.11.2019 10:00:00 -0,6 -4,2 15 8 - - E
15.11.2019 09:00:00 -0,7 -1,4 26 14 - - E
15.11.2019 08:00:00 -0,7 -1,4 18 10 - - ENE
15.11.2019 07:00:00 -0,5 -1,5 18 10 - - ENE
15.11.2019 06:00:00 -0,8 -1,9 11 6 52 28 E
15.11.2019 05:00:00 -0,3 -2,0 26 14 61 33 NE
15.11.2019 04:00:00 -1,0 -1,6 26 14 50 27 NNE
15.11.2019 03:00:00 -0,8 -2,4 31 17 63 34 NNE
15.11.2019 02:00:00 -0,5 -1,6 48 26 85 46 NNE
15.11.2019 01:00:00 -0,8 -2,3 39 21 61 33 NNE
15.11.2019 00:00:00 -1,5 -2,1 28 15 52 28 NNE
14.11.2019 23:00:00 -1,4 -2,6 29 16 52 28 NE
14.11.2019 22:00:00 -1,0 -2,4 18 10 61 33 ENE
14.11.2019 21:00:00 -1,8 -2,5 28 15 63 34 NE
14.11.2019 20:00:00 -1,1 -3,3 41 22 61 33 NNE
14.11.2019 19:00:00 -0,9 -2,4 41 22 65 35 NNE
14.11.2019 18:00:00 -0,9 -1,9 50 27 70 38 NNE
14.11.2019 17:00:00 -1,2 -1,8 34 18 63 34 NNE
14.11.2019 16:00:00 -1,3 -2,1 41 22 63 34 NNE
14.11.2019 15:00:00 -0,9 -3,6 42 23 74 40 NE
14.11.2019 14:00:00 -1,5 -3,5 39 21 61 33 NNE
14.11.2019 13:00:00 -1,0 -4,8 34 18 52 28 NE
14.11.2019 12:00:00 -1,3 -4,9 29 16 52 28 NNE
14.11.2019 11:00:00 -1,5 -3,7 22 12 48 26 NNE
14.11.2019 10:00:00 -1,2 -5,3 35 19 48 26 NE
14.11.2019 09:00:00 -1,6 -3,0 34 18 50 27 NNE
14.11.2019 08:00:00 -1,8 -2,7 29 16 48 26 NE
14.11.2019 07:00:00 -2,3 -2,9 28 15 50 27 NNE
14.11.2019 06:00:00 -2,1 -3,1 28 15 52 28 NNE
14.11.2019 05:00:00 -2,1 -4,0 29 16 48 26 NNE
14.11.2019 04:00:00 -2,0 -4,4 29 16 - - NE
14.11.2019 03:00:00 -2,2 -4,8 16 9 - - ENE
14.11.2019 02:00:00 -2,1 -5,6 21 11 - - ENE
14.11.2019 01:00:00 -2,2 -4,1 15 8 - - ENE
14.11.2019 00:00:00 -2,0 -3,8 24 13 - - E
13.11.2019 23:00:00 -2,3 -3,6 28 15 48 26 E
13.11.2019 22:00:00 -2,7 -3,3 26 14 54 29 E
13.11.2019 21:00:00 -2,9 -3,2 29 16 - - E
13.11.2019 20:00:00 -2,9 -4,3 29 16 - - E
13.11.2019 19:00:00 -2,7 -5,3 18 10 - - E
13.11.2019 18:00:00 -2,5 -5,2 22 12 - - ESE

tt = temperature
td = dewpoint
ff = wind speed
fx = gusts
dd = wind direction

Next stations